Terminal Aerodrome Forecast
Issued by NWS Glasgow, MT

Home | Current Version | Previous Version | Text Only | Print | Product List | Glossary On
Versions: 1 2 3 4 5 6 7 8 9 10 11 12 13
000
FTUS45 KGGW 220520
TAFGGW
TAF
KGGW 220520Z 2206/2306 VRB04KT P6SM FEW230
     FM221400 19008KT P6SM OVC060 WS020/25035KT
     FM221800 26020G28KT P6SM BKN070
     FM222100 28028G38KT P6SM VCSH SCT060
     FM230200 28019G27KT P6SM SCT080 WS020/29050KT=

USA.gov is the U.S. government's official web portal to all federal, state and local government web resources and services.